Wed, 16 Jun 2021 03:06:52 UTC

Information for RPM ethtool-5-1.fc7.x86_64.rpm

ID29769
Nameethtool
Version5
Release1.fc7
Epoch
Archx86_64
SummaryEthernet settings tool for PCI ethernet cards
DescriptionThis utility allows querying and changing of ethernet card settings, such as speed, port, autonegotiation, and PCI locations.
Build Time2006-12-14 20:42:32 GMT
Size62,688
eb20dc192fb19ee72b895861ece09ba0
LicenseGPL
Provides
ethtool = 5-1.fc7
Obsoletes No Obsoletes
Conflicts No Conflicts
Requires
libc.so.6()(64bit)
libc.so.6(GLIBC_2.2.5)(64bit)
libc.so.6(GLIBC_2.3.4)(64bit)
libc.so.6(GLIBC_2.4)(64bit)
rpmlib(CompressedFileNames) <= 3.0.4-1
rpmlib(PayloadFilesHavePrefix) <= 4.0-1
rtld(GNU_HASH)
Recommends No Recommends
Suggests No Suggests
Supplements No Supplements
Enhances No Enhances
Files
1 through 10 of 10
Name ascending sort Size
/sbin/ethtool98,696
/usr/sbin/ethtool13
/usr/share/doc/ethtool-54,096
/usr/share/doc/ethtool-5/AUTHORS267
/usr/share/doc/ethtool-5/COPYING17,992
/usr/share/doc/ethtool-5/ChangeLog11,384
/usr/share/doc/ethtool-5/INSTALL9,273
/usr/share/doc/ethtool-5/NEWS3,141
/usr/share/doc/ethtool-5/README127
/usr/share/man/man8/ethtool.8.gz2,803
Component of
Page:
1 through 50 of 26505 >>>
Buildroot descending sort Created State
dist-f8-build-457090-71264 2009-05-19 22:16:40 expired
dist-f8-build-435825-71264 2009-04-22 13:44:21 expired
dist-f8-build-435362-71264 2009-04-22 01:46:44 expired
dist-f8-build-434843-71264 2009-04-21 21:31:50 expired
dist-f8-build-434821-71264 2009-04-21 21:19:43 expired
dist-f8-build-430510-68129 2009-04-17 01:48:23 expired
dist-f8-build-430506-68129 2009-04-17 01:37:12 expired
dist-f8-build-430502-68129 2009-04-17 01:15:52 expired
dist-f8-build-430490-68129 2009-04-17 01:00:10 expired
dist-f8-build-430439-68129 2009-04-17 00:12:09 expired
dist-f8-build-426329-68129 2009-04-13 07:59:07 expired
dist-f8-build-418214-68129 2009-04-02 07:26:32 expired
dist-f8-build-416381-68129 2009-03-31 12:42:04 expired
dist-f8-build-408957-68129 2009-03-20 09:25:19 expired
dist-f8-build-394625-65603 2009-03-04 17:55:08 expired
dist-f8-build-394621-65603 2009-03-04 17:49:58 expired
dist-f8-build-394313-65603 2009-03-04 15:06:24 expired
dist-f8-build-387053-65603 2009-02-27 15:02:53 expired
dist-f8-build-353112-65603 2009-02-19 17:38:43 expired
dist-f8-build-324941-58606 2009-01-11 03:45:46 expired
dist-f8-build-324938-58606 2009-01-11 03:24:00 expired
dist-f8-build-324931-58606 2009-01-11 02:44:08 expired
dist-f8-build-323468-58606 2009-01-08 16:22:48 expired
dist-f8-build-323121-58606 2009-01-08 04:41:30 expired
dist-f8-build-323071-58606 2009-01-08 00:28:30 expired
dist-f8-build-323032-58606 2009-01-07 23:18:01 expired
dist-f8-build-322933-58606 2009-01-07 21:28:05 expired
dist-f8-build-322890-58606 2009-01-07 20:39:39 expired
dist-f8-build-322490-58485 2009-01-07 10:19:39 expired
dist-f8-build-321923-58308 2009-01-06 14:30:13 expired
dist-f8-build-321541-58308 2009-01-05 23:08:01 expired
dist-f8-build-321345-58308 2009-01-05 18:11:14 expired
dist-f8-build-320986-57785 2009-01-05 10:31:12 expired
dist-f8-build-320557-57785 2009-01-04 18:09:40 expired
dist-f8-build-320498-57785 2009-01-04 15:55:19 expired
dist-f8-build-320223-57785 2009-01-03 15:55:45 expired
dist-f8-build-320068-57785 2009-01-03 06:37:03 expired
dist-f8-build-319855-57785 2009-01-02 14:14:59 expired
dist-f8-build-319825-57785 2009-01-02 13:05:31 expired
dist-f8-build-319732-57785 2009-01-02 07:50:56 expired
dist-f8-build-319725-57785 2009-01-02 07:28:36 expired
dist-f8-build-319696-57785 2009-01-02 04:55:26 expired
dist-f8-build-319675-57785 2009-01-02 04:05:15 expired
dist-f8-build-319624-57785 2009-01-01 22:50:24 expired
dist-f8-build-319450-57785 2009-01-01 11:05:19 expired
dist-f8-build-319310-57785 2008-12-31 16:40:39 expired
dist-f8-build-319277-57785 2008-12-31 15:54:56 expired
dist-f8-build-319050-57785 2008-12-31 04:38:15 expired
dist-f8-build-319035-57785 2008-12-31 04:05:26 expired
dist-f8-build-318788-57488 2008-12-30 12:02:00 expired